createdAt,value
2018-08-03T00:00:26.525Z,1013.61
2018-08-03T00:02:19.348Z,1013.62
2018-08-03T00:03:19.320Z,1013.63
2018-08-03T00:05:12.235Z,1013.64
2018-08-03T00:06:12.215Z,1013.61
2018-08-03T00:08:05.031Z,1013.59
2018-08-03T00:09:05.011Z,1013.58
2018-08-03T00:10:57.825Z,1013.61
2018-08-03T00:11:57.789Z,1013.60
2018-08-03T00:13:50.618Z,1013.61
2018-08-03T00:14:50.583Z,1013.61
2018-08-03T00:16:43.396Z,1013.64
2018-08-03T00:17:43.364Z,1013.61
2018-08-03T00:19:36.199Z,1013.64
2018-08-03T00:20:36.154Z,1013.65
2018-08-03T00:22:28.974Z,1013.67
2018-08-03T00:23:28.942Z,1013.66
2018-08-03T00:25:21.785Z,1013.65
2018-08-03T00:26:21.732Z,1013.62
2018-08-03T00:28:14.569Z,1013.64
2018-08-03T00:29:14.534Z,1013.64
2018-08-03T00:31:07.360Z,1013.60
2018-08-03T00:32:07.308Z,1013.63
2018-08-03T00:34:00.154Z,1013.63
2018-08-03T00:35:00.104Z,1013.58
2018-08-03T00:36:52.911Z,1013.57
2018-08-03T00:37:52.890Z,1013.56
2018-08-03T00:39:45.731Z,1013.57
2018-08-03T00:40:45.680Z,1013.52
2018-08-03T00:42:38.519Z,1013.51
2018-08-03T00:43:38.470Z,1013.52
2018-08-03T00:45:31.290Z,1013.50
2018-08-03T00:46:31.263Z,1013.51
2018-08-03T00:48:24.091Z,1013.49
2018-08-03T00:49:24.048Z,1013.48
2018-08-03T00:51:17.875Z,1013.47
2018-08-03T00:52:17.830Z,1013.49
2018-08-03T00:54:10.662Z,1013.48
2018-08-03T00:55:10.628Z,1013.50
2018-08-03T00:57:03.484Z,1013.51
2018-08-03T00:58:03.435Z,1013.56
2018-08-03T00:59:56.255Z,1013.52
2018-08-03T01:00:56.226Z,1013.52
2018-08-03T01:02:49.065Z,1013.53
2018-08-03T01:03:49.015Z,1013.49
2018-08-03T01:05:41.837Z,1013.46
2018-08-03T01:06:41.814Z,1013.43
2018-08-03T01:08:34.641Z,1013.41
2018-08-03T01:09:34.590Z,1013.39
2018-08-03T01:11:27.426Z,1013.35
2018-08-03T01:12:27.387Z,1013.38
2018-08-03T01:14:20.215Z,1013.34
2018-08-03T01:15:20.167Z,1013.35
2018-08-03T01:17:12.998Z,1013.38
2018-08-03T01:18:12.967Z,1013.40
2018-08-03T01:20:05.769Z,1013.44
2018-08-03T01:21:05.751Z,1013.41
2018-08-03T01:22:58.572Z,1013.42
2018-08-03T01:23:58.526Z,1013.45
2018-08-03T01:25:51.342Z,1013.42
2018-08-03T01:26:51.321Z,1013.42
2018-08-03T01:28:44.156Z,1013.43
2018-08-03T01:29:44.107Z,1013.44
2018-08-03T01:31:36.928Z,1013.40
2018-08-03T01:32:36.893Z,1013.40
2018-08-03T01:34:29.718Z,1013.41
2018-08-03T01:35:29.676Z,1013.45
2018-08-03T01:37:22.492Z,1013.43
2018-08-03T01:38:22.462Z,1013.42
2018-08-03T01:40:15.292Z,1013.41
2018-08-03T01:41:15.254Z,1013.38
2018-08-03T01:43:08.067Z,1013.42
2018-08-03T01:44:08.053Z,1013.40
2018-08-03T01:46:00.877Z,1013.39
2018-08-03T01:47:00.835Z,1013.37
2018-08-03T01:48:53.662Z,1013.33
2018-08-03T01:49:53.677Z,1013.35
2018-08-03T01:51:46.437Z,1013.35
2018-08-03T01:52:46.429Z,1013.33
2018-08-03T01:54:39.247Z,1013.38
2018-08-03T01:55:39.202Z,1013.39
2018-08-03T01:57:32.010Z,1013.40
2018-08-03T01:58:31.982Z,1013.44
2018-08-03T02:00:24.818Z,1013.44
2018-08-03T02:01:24.774Z,1013.40
2018-08-03T02:03:17.613Z,1013.40
2018-08-03T02:04:17.566Z,1013.38
2018-08-03T02:06:10.405Z,1013.36
2018-08-03T02:07:10.354Z,1013.36
2018-08-03T02:09:03.164Z,1013.35
2018-08-03T02:10:03.120Z,1013.32
2018-08-03T02:11:55.960Z,1013.36
2018-08-03T02:12:55.919Z,1013.32
2018-08-03T02:14:48.743Z,1013.29
2018-08-03T02:15:48.694Z,1013.29
2018-08-03T02:17:41.520Z,1013.32
2018-08-03T02:18:41.484Z,1013.34
2018-08-03T02:20:34.324Z,1013.33
2018-08-03T02:21:34.270Z,1013.30
2018-08-03T02:23:27.085Z,1013.28
2018-08-03T02:24:27.058Z,1013.27
2018-08-03T02:26:19.890Z,1013.31
2018-08-03T02:27:19.850Z,1013.29
2018-08-03T02:29:12.665Z,1013.31
2018-08-03T02:30:12.641Z,1013.31
2018-08-03T02:32:05.468Z,1013.29
2018-08-03T02:33:05.432Z,1013.29
2018-08-03T02:34:58.266Z,1013.31
2018-08-03T02:35:58.205Z,1013.29
2018-08-03T02:37:51.039Z,1013.29
2018-08-03T02:38:51.013Z,1013.29
2018-08-03T02:40:43.834Z,1013.33
2018-08-03T02:41:43.799Z,1013.28
2018-08-03T02:43:36.598Z,1013.30
2018-08-03T02:44:36.574Z,1013.29
2018-08-03T02:46:29.416Z,1013.31
2018-08-03T02:47:29.380Z,1013.32
2018-08-03T02:49:22.186Z,1013.35
2018-08-03T02:50:22.151Z,1013.36
2018-08-03T02:52:14.984Z,1013.34
2018-08-03T02:53:14.941Z,1013.35
2018-08-03T02:55:07.760Z,1013.43
2018-08-03T02:56:07.735Z,1013.42
2018-08-03T02:58:00.548Z,1013.45
2018-08-03T02:59:00.512Z,1013.45
2018-08-03T03:00:53.334Z,1013.47
2018-08-03T03:01:53.295Z,1013.47
2018-08-03T03:03:46.120Z,1013.43
2018-08-03T03:04:46.095Z,1013.44
2018-08-03T03:06:38.910Z,1013.39
2018-08-03T03:07:38.865Z,1013.42
2018-08-03T03:09:31.697Z,1013.44
2018-08-03T03:10:31.651Z,1013.44
2018-08-03T03:12:24.517Z,1013.45
2018-08-03T03:13:24.446Z,1013.48
2018-08-03T03:15:17.255Z,1013.44
2018-08-03T03:16:17.227Z,1013.44
2018-08-03T03:18:10.066Z,1013.43
2018-08-03T03:19:10.007Z,1013.43
2018-08-03T03:21:02.820Z,1013.45
2018-08-03T03:22:02.791Z,1013.41
2018-08-03T03:23:55.615Z,1013.42
2018-08-03T03:24:55.577Z,1013.38
2018-08-03T03:26:48.395Z,1013.37
2018-08-03T03:27:48.353Z,1013.38
2018-08-03T03:29:41.189Z,1013.29
2018-08-03T03:30:41.151Z,1013.33
2018-08-03T03:32:33.988Z,1013.33
2018-08-03T03:33:33.975Z,1013.37
2018-08-03T03:35:26.786Z,1013.36
2018-08-03T03:36:26.743Z,1013.36
2018-08-03T03:38:19.546Z,1013.35
2018-08-03T03:39:19.523Z,1013.35
2018-08-03T03:41:12.348Z,1013.39
2018-08-03T03:42:12.313Z,1013.38
2018-08-03T03:44:05.147Z,1013.44
2018-08-03T03:45:05.102Z,1013.44
2018-08-03T03:46:57.907Z,1013.44
2018-08-03T03:47:57.882Z,1013.45
2018-08-03T03:49:50.829Z,1013.43
2018-08-03T03:50:50.661Z,1013.45
2018-08-03T03:52:43.483Z,1013.42
2018-08-03T03:53:43.447Z,1013.41
2018-08-03T03:55:36.264Z,1013.39
2018-08-03T03:56:36.236Z,1013.39
2018-08-03T03:58:29.047Z,1013.39
2018-08-03T03:59:29.010Z,1013.37
2018-08-03T04:01:21.860Z,1013.40
2018-08-03T04:02:21.798Z,1013.40
2018-08-03T04:04:14.612Z,1013.44
2018-08-03T04:05:14.597Z,1013.45
2018-08-03T04:07:07.426Z,1013.42
2018-08-03T04:08:07.377Z,1013.48
2018-08-03T04:10:00.208Z,1013.43
2018-08-03T04:11:00.297Z,1013.44
2018-08-03T04:12:52.978Z,1013.39
2018-08-03T04:13:52.949Z,1013.38
2018-08-03T04:15:45.770Z,1013.35
2018-08-03T04:16:45.723Z,1013.38
2018-08-03T04:18:38.543Z,1013.37
2018-08-03T04:19:38.613Z,1013.42
2018-08-03T04:21:31.347Z,1013.44
2018-08-03T04:22:31.299Z,1013.43
2018-08-03T04:24:24.104Z,1013.41
2018-08-03T04:25:24.091Z,1013.45
2018-08-03T04:27:16.895Z,1013.43
2018-08-03T04:28:16.859Z,1013.43
2018-08-03T04:30:09.724Z,1013.41
2018-08-03T04:31:09.658Z,1013.46
2018-08-03T04:33:02.457Z,1013.44
2018-08-03T04:34:02.434Z,1013.46
2018-08-03T04:35:55.264Z,1013.45
2018-08-03T04:36:55.216Z,1013.45
2018-08-03T04:38:48.023Z,1013.43
2018-08-03T04:39:47.993Z,1013.42
2018-08-03T04:41:40.825Z,1013.42
2018-08-03T04:42:40.778Z,1013.42
2018-08-03T04:44:33.608Z,1013.46
2018-08-03T04:45:33.560Z,1013.49
2018-08-03T04:47:26.394Z,1013.53
2018-08-03T04:48:26.359Z,1013.50
2018-08-03T04:50:19.176Z,1013.52
2018-08-03T04:51:19.140Z,1013.52
2018-08-03T04:53:11.959Z,1013.54
2018-08-03T04:54:11.914Z,1013.46
2018-08-03T04:56:04.741Z,1013.49
2018-08-03T04:57:04.707Z,1013.48
2018-08-03T04:58:57.519Z,1013.54
2018-08-03T04:59:57.488Z,1013.53
2018-08-03T05:01:50.322Z,1013.53
2018-08-03T05:02:50.262Z,1013.56
2018-08-03T05:04:43.110Z,1013.59
2018-08-03T05:05:43.061Z,1013.60
2018-08-03T05:07:35.910Z,1013.58
2018-08-03T05:08:35.854Z,1013.57
2018-08-03T05:10:28.672Z,1013.53
2018-08-03T05:11:28.636Z,1013.57
2018-08-03T05:13:21.469Z,1013.60
2018-08-03T05:14:21.415Z,1013.63
2018-08-03T05:16:14.240Z,1013.60
2018-08-03T05:17:14.222Z,1013.61
2018-08-03T05:19:07.038Z,1013.62
2018-08-03T05:20:06.987Z,1013.57
2018-08-03T05:21:59.828Z,1013.59
2018-08-03T05:22:59.789Z,1013.56
2018-08-03T05:24:52.607Z,1013.58
2018-08-03T05:25:52.570Z,1013.59
2018-08-03T05:27:45.382Z,1013.63
2018-08-03T05:28:45.351Z,1013.62
2018-08-03T05:30:38.180Z,1013.57
2018-08-03T05:31:38.133Z,1013.55
2018-08-03T05:33:30.957Z,1013.56
2018-08-03T05:34:30.926Z,1013.55
2018-08-03T05:36:23.804Z,1013.55
2018-08-03T05:37:23.702Z,1013.57
2018-08-03T05:39:16.521Z,1013.52
2018-08-03T05:40:16.477Z,1013.55
2018-08-03T05:42:09.300Z,1013.54
2018-08-03T05:43:09.258Z,1013.53
2018-08-03T05:45:02.112Z,1013.58
2018-08-03T05:46:02.047Z,1013.56
2018-08-03T05:47:54.878Z,1013.61
2018-08-03T05:48:54.838Z,1013.60
2018-08-03T05:50:47.675Z,1013.63
2018-08-03T05:51:47.631Z,1013.66
2018-08-03T05:53:40.463Z,1013.65
2018-08-03T05:54:40.432Z,1013.65
2018-08-03T05:56:33.258Z,1013.68
2018-08-03T05:57:33.216Z,1013.67
2018-08-03T05:59:26.046Z,1013.66
2018-08-03T06:00:25.997Z,1013.70
2018-08-03T06:02:18.819Z,1013.70
2018-08-03T06:03:18.787Z,1013.69
2018-08-03T06:05:11.611Z,1013.71
2018-08-03T06:06:11.582Z,1013.68
2018-08-03T06:08:04.434Z,1013.73
2018-08-03T06:09:04.372Z,1013.71
2018-08-03T06:10:57.223Z,1013.74
2018-08-03T06:11:57.171Z,1013.76
2018-08-03T06:13:50.002Z,1013.76
2018-08-03T06:14:49.961Z,1013.75
2018-08-03T06:16:42.772Z,1013.76
2018-08-03T06:17:42.738Z,1013.78
2018-08-03T06:19:35.574Z,1013.78
2018-08-03T06:20:35.568Z,1013.74
2018-08-03T06:22:28.337Z,1013.75
2018-08-03T06:23:28.307Z,1013.74
2018-08-03T06:25:21.147Z,1013.77
2018-08-03T06:26:21.099Z,1013.82
2018-08-03T06:28:13.937Z,1013.77
2018-08-03T06:29:13.893Z,1013.80
2018-08-03T06:31:06.735Z,1013.78
2018-08-03T06:32:06.684Z,1013.81
2018-08-03T06:33:59.507Z,1013.72
2018-08-03T06:34:59.477Z,1013.76
2018-08-03T06:36:52.318Z,1013.77
2018-08-03T06:37:52.262Z,1013.78
2018-08-03T06:39:45.599Z,1013.74
2018-08-03T06:40:45.558Z,1013.72
2018-08-03T06:42:38.378Z,1013.73
2018-08-03T06:43:38.337Z,1013.70
2018-08-03T06:45:31.163Z,1013.73
2018-08-03T06:46:31.134Z,1013.73
2018-08-03T06:48:24.018Z,1013.75
2018-08-03T06:49:23.918Z,1013.72
2018-08-03T06:51:16.749Z,1013.75
2018-08-03T06:52:16.706Z,1013.77
2018-08-03T06:54:10.041Z,1013.77
2018-08-03T06:55:10.016Z,1013.74
2018-08-03T06:57:02.809Z,1013.82
2018-08-03T06:58:02.784Z,1013.81
2018-08-03T06:59:56.103Z,1013.81
2018-08-03T07:00:56.061Z,1013.77
2018-08-03T07:02:48.930Z,1013.79
2018-08-03T07:03:48.854Z,1013.79
2018-08-03T07:05:41.690Z,1013.77
2018-08-03T07:06:41.660Z,1013.80
2018-08-03T07:08:34.501Z,1013.76
2018-08-03T07:09:34.436Z,1013.77
2018-08-03T07:11:27.260Z,1013.74
2018-08-03T07:12:27.232Z,1013.74
2018-08-03T07:14:20.059Z,1013.73
2018-08-03T07:15:20.016Z,1013.74
2018-08-03T07:17:12.831Z,1013.70
2018-08-03T07:18:12.805Z,1013.71
2018-08-03T07:20:06.204Z,1013.68
2018-08-03T07:21:06.107Z,1013.69
2018-08-03T07:22:59.410Z,1013.71
2018-08-03T07:23:59.367Z,1013.74
2018-08-03T07:25:52.231Z,1013.74
2018-08-03T07:26:52.160Z,1013.75
2018-08-03T07:28:44.997Z,1013.74
2018-08-03T07:29:44.945Z,1013.71
2018-08-03T07:31:37.815Z,1013.71
2018-08-03T07:32:37.735Z,1013.71
2018-08-03T07:34:30.573Z,1013.74
2018-08-03T07:35:30.535Z,1013.74
2018-08-03T07:37:23.367Z,1013.78
2018-08-03T07:38:23.316Z,1013.73
2018-08-03T07:40:16.137Z,1013.75
2018-08-03T07:41:16.107Z,1013.76
2018-08-03T07:43:08.995Z,1013.81
2018-08-03T07:44:08.900Z,1013.77
2018-08-03T07:46:01.737Z,1013.85
2018-08-03T07:47:01.705Z,1013.77
2018-08-03T07:48:54.522Z,1013.81
2018-08-03T07:49:54.502Z,1013.78
2018-08-03T07:51:47.820Z,1013.82
2018-08-03T07:52:47.787Z,1013.79
2018-08-03T07:54:40.597Z,1013.77
2018-08-03T07:55:40.573Z,1013.79
2018-08-03T07:57:33.427Z,1013.78
2018-08-03T07:58:33.375Z,1013.77
2018-08-03T08:00:26.177Z,1013.77
2018-08-03T08:01:26.146Z,1013.83
2018-08-03T08:03:19.027Z,1013.76
2018-08-03T08:04:18.978Z,1013.83
2018-08-03T08:06:11.784Z,1013.78
2018-08-03T08:07:11.741Z,1013.77
2018-08-03T08:09:05.067Z,1013.76
2018-08-03T08:10:05.026Z,1013.79
2018-08-03T08:11:57.838Z,1013.71
2018-08-03T08:12:57.816Z,1013.73
2018-08-03T08:14:50.639Z,1013.75
2018-08-03T08:15:50.613Z,1013.76
2018-08-03T08:17:43.438Z,1013.72
2018-08-03T08:18:43.400Z,1013.74
2018-08-03T08:20:36.222Z,1013.68
2018-08-03T08:21:36.197Z,1013.67
2018-08-03T08:23:29.040Z,1013.70
2018-08-03T08:24:28.988Z,1013.67
2018-08-03T08:26:21.822Z,1013.64
2018-08-03T08:27:21.786Z,1013.66
2018-08-03T08:29:14.622Z,1013.63
2018-08-03T08:30:14.586Z,1013.58
2018-08-03T08:32:07.406Z,1013.60
2018-08-03T08:33:07.378Z,1013.59
2018-08-03T08:35:00.254Z,1013.55
2018-08-03T08:36:00.192Z,1013.54
2018-08-03T08:37:52.998Z,1013.51
2018-08-03T08:38:52.968Z,1013.51
2018-08-03T08:40:46.310Z,1013.52
2018-08-03T08:41:46.275Z,1013.53
2018-08-03T08:43:39.665Z,1013.51
2018-08-03T08:44:39.567Z,1013.50
2018-08-03T08:46:32.389Z,1013.51
2018-08-03T08:47:32.369Z,1013.52
2018-08-03T08:49:25.708Z,1013.47
2018-08-03T08:50:25.704Z,1013.48
2018-08-03T08:52:18.507Z,1013.52
2018-08-03T08:53:18.496Z,1013.45
2018-08-03T08:55:11.292Z,1013.44
2018-08-03T08:56:11.257Z,1013.43
2018-08-03T08:58:04.569Z,1013.41
2018-08-03T08:59:04.547Z,1013.40
2018-08-03T09:00:57.929Z,1013.39
2018-08-03T09:01:57.841Z,1013.36
2018-08-03T09:03:51.159Z,1013.37
2018-08-03T09:04:51.140Z,1013.37
2018-08-03T09:06:44.008Z,1013.39
2018-08-03T09:07:43.976Z,1013.39
2018-08-03T09:09:36.764Z,1013.38
2018-08-03T09:10:36.754Z,1013.36
2018-08-03T09:12:30.094Z,1013.37
2018-08-03T09:13:30.042Z,1013.36
2018-08-03T09:15:23.356Z,1013.36
2018-08-03T09:16:23.325Z,1013.35
2018-08-03T09:18:16.181Z,1013.35
2018-08-03T09:19:16.135Z,1013.34
2018-08-03T09:21:08.962Z,1013.38
2018-08-03T09:22:08.988Z,1013.37
2018-08-03T09:24:01.770Z,1013.36
2018-08-03T09:25:01.729Z,1013.39
2018-08-03T09:26:54.570Z,1013.36
2018-08-03T09:27:54.525Z,1013.30
2018-08-03T09:29:47.864Z,1013.33
2018-08-03T09:30:47.832Z,1013.32
2018-08-03T09:32:40.667Z,1013.28
2018-08-03T09:33:40.622Z,1013.24
2018-08-03T09:35:33.486Z,1013.20
2018-08-03T09:36:33.473Z,1013.20
2018-08-03T09:38:26.281Z,1013.21
2018-08-03T09:39:26.246Z,1013.18
2018-08-03T09:41:19.082Z,1013.15
2018-08-03T09:42:19.050Z,1013.16
2018-08-03T09:44:11.897Z,1013.19
2018-08-03T09:45:11.846Z,1013.22
2018-08-03T09:47:04.692Z,1013.20
2018-08-03T09:48:04.649Z,1013.15
2018-08-03T09:49:57.481Z,1013.19
2018-08-03T09:50:57.451Z,1013.11
2018-08-03T09:52:50.282Z,1013.07
2018-08-03T09:53:50.246Z,1013.11
2018-08-03T09:55:43.072Z,1013.08
2018-08-03T09:56:43.054Z,1013.06
2018-08-03T09:58:35.886Z,1013.00
2018-08-03T09:59:35.855Z,1013.08
2018-08-03T10:01:29.162Z,1013.37
2018-08-03T10:02:29.148Z,1013.40
2018-08-03T10:04:21.996Z,1013.47
2018-08-03T10:05:21.946Z,1013.54
2018-08-03T10:07:14.789Z,1013.45
2018-08-03T10:08:14.751Z,1013.44
2018-08-03T10:10:07.577Z,1013.41
2018-08-03T10:11:07.557Z,1013.41
2018-08-03T10:13:00.412Z,1013.43
2018-08-03T10:14:00.368Z,1013.41
2018-08-03T10:15:53.203Z,1013.45
2018-08-03T10:16:53.189Z,1013.36
2018-08-03T10:18:46.031Z,1013.36
2018-08-03T10:19:45.997Z,1013.36
2018-08-03T10:21:38.844Z,1013.38
2018-08-03T10:22:38.816Z,1013.36
2018-08-03T10:24:31.678Z,1013.35
2018-08-03T10:25:31.648Z,1013.37
2018-08-03T10:27:24.483Z,1013.28
2018-08-03T10:28:24.462Z,1013.24
2018-08-03T10:30:17.317Z,1013.23
2018-08-03T10:31:17.288Z,1013.28
2018-08-03T10:33:10.137Z,1013.30
2018-08-03T10:34:10.102Z,1013.24
2018-08-03T10:36:02.973Z,1013.08
2018-08-03T10:37:02.951Z,1013.18
2018-08-03T10:38:55.788Z,1013.19
2018-08-03T10:39:55.761Z,1013.19
2018-08-03T10:41:49.129Z,1012.99
2018-08-03T10:42:49.197Z,1013.03
2018-08-03T10:44:42.054Z,1013.05
2018-08-03T10:45:41.924Z,1013.06
2018-08-03T10:47:34.778Z,1013.02
2018-08-03T10:48:34.809Z,1013.04
2018-08-03T10:50:27.652Z,1012.95
2018-08-03T10:51:27.588Z,1012.89
2018-08-03T10:53:20.433Z,1012.92
2018-08-03T10:54:20.434Z,1012.91
2018-08-03T10:56:13.263Z,1012.94
2018-08-03T10:57:13.243Z,1012.81
2018-08-03T10:59:06.588Z,1012.86
2018-08-03T11:00:06.576Z,1012.87
2018-08-03T11:01:59.430Z,1012.59
2018-08-03T11:02:59.414Z,1012.83
2018-08-03T11:04:52.247Z,1012.90
2018-08-03T11:05:52.232Z,1012.81
2018-08-03T11:07:45.090Z,1012.83
2018-08-03T11:08:45.065Z,1012.85
2018-08-03T11:10:38.434Z,1012.81
2018-08-03T11:11:38.405Z,1012.90
2018-08-03T11:13:31.309Z,1012.79
2018-08-03T11:14:31.239Z,1012.82
2018-08-03T11:16:24.115Z,1012.86
2018-08-03T11:17:24.073Z,1012.86
2018-08-03T11:19:16.943Z,1012.82
2018-08-03T11:20:16.905Z,1012.88
2018-08-03T11:22:09.745Z,1012.89
2018-08-03T11:23:09.742Z,1012.81
2018-08-03T11:25:02.604Z,1012.78
2018-08-03T11:26:02.575Z,1012.84
2018-08-03T11:27:55.435Z,1012.55
2018-08-03T11:28:55.418Z,1012.69
2018-08-03T11:30:48.287Z,1012.72
2018-08-03T11:31:48.256Z,1012.69
2018-08-03T11:33:41.584Z,1012.72
2018-08-03T11:34:41.579Z,1012.64
2018-08-03T11:36:34.932Z,1012.60
2018-08-03T11:37:34.905Z,1012.57
2018-08-03T11:39:27.750Z,1012.41
2018-08-03T11:40:27.739Z,1012.48
2018-08-03T11:42:20.639Z,1012.42
2018-08-03T11:43:20.565Z,1012.46
2018-08-03T11:45:13.415Z,1012.49
2018-08-03T11:46:13.397Z,1012.57
2018-08-03T11:48:06.264Z,1012.41
2018-08-03T11:49:06.235Z,1012.45
2018-08-03T11:50:59.081Z,1012.39
2018-08-03T11:51:59.072Z,1012.32
2018-08-03T11:53:51.933Z,1012.23
2018-08-03T11:54:51.900Z,1012.23
2018-08-03T11:56:44.756Z,1012.09
2018-08-03T11:57:44.734Z,1012.14
2018-08-03T11:59:37.608Z,1011.96
2018-08-03T12:00:37.561Z,1011.97
2018-08-03T12:02:30.921Z,1011.97
2018-08-03T12:03:30.897Z,1011.95
2018-08-03T12:05:24.244Z,1012.18
2018-08-03T12:06:24.246Z,1012.24
2018-08-03T12:08:17.082Z,1011.97
2018-08-03T12:09:17.046Z,1012.10
2018-08-03T12:11:10.410Z,1012.17
2018-08-03T12:12:10.371Z,1012.16
2018-08-03T12:14:03.226Z,1012.04
2018-08-03T12:15:03.207Z,1012.13
2018-08-03T12:16:56.061Z,1012.08
2018-08-03T12:17:56.084Z,1012.04
2018-08-03T12:19:49.393Z,1011.99
2018-08-03T12:20:49.363Z,1012.00
2018-08-03T12:22:42.227Z,1012.02
2018-08-03T12:23:42.223Z,1011.95
2018-08-03T12:25:35.057Z,1011.84
2018-08-03T12:26:35.038Z,1011.97
2018-08-03T12:28:27.883Z,1011.92
2018-08-03T12:29:27.867Z,1012.01
2018-08-03T12:31:20.772Z,1011.99
2018-08-03T12:32:20.686Z,1011.85
2018-08-03T12:34:13.550Z,1011.61
2018-08-03T12:35:13.978Z,1011.69
2018-08-03T12:37:06.427Z,1011.74
2018-08-03T12:38:06.383Z,1011.82
2018-08-03T12:39:59.713Z,1011.53
2018-08-03T12:40:59.703Z,1011.53
2018-08-03T12:42:53.028Z,1011.73
2018-08-03T12:43:53.017Z,1011.80
2018-08-03T12:45:45.862Z,1011.63
2018-08-03T12:46:45.844Z,1011.77
2018-08-03T12:48:38.704Z,1011.75
2018-08-03T12:49:38.658Z,1011.67
2018-08-03T12:51:32.068Z,1011.64
2018-08-03T12:52:32.014Z,1011.52
2018-08-03T12:54:25.374Z,1011.70
2018-08-03T12:55:25.334Z,1011.60
2018-08-03T12:57:18.668Z,1011.55
2018-08-03T12:58:18.663Z,1011.66
2018-08-03T13:00:11.525Z,1011.49
2018-08-03T13:01:11.499Z,1011.52
2018-08-03T13:03:04.347Z,1011.48
2018-08-03T13:04:04.319Z,1011.43
2018-08-03T13:05:57.673Z,1011.32
2018-08-03T13:06:57.653Z,1011.48
2018-08-03T13:08:50.492Z,1011.35
2018-08-03T13:09:50.477Z,1011.43
2018-08-03T13:11:43.352Z,1011.54
2018-08-03T13:12:43.338Z,1011.38
2018-08-03T13:14:36.648Z,1011.28
2018-08-03T13:15:36.640Z,1011.30
2018-08-03T13:17:29.494Z,1011.24
2018-08-03T13:18:29.472Z,1011.32
2018-08-03T13:20:22.329Z,1011.40
2018-08-03T13:21:22.328Z,1011.31
2018-08-03T13:23:15.143Z,1011.41
2018-08-03T13:24:15.129Z,1011.35
2018-08-03T13:26:07.990Z,1011.36
2018-08-03T13:27:07.956Z,1011.20
2018-08-03T13:29:01.305Z,1011.17
2018-08-03T13:30:01.291Z,1011.22
2018-08-03T13:31:54.146Z,1011.28
2018-08-03T13:32:54.105Z,1011.10
2018-08-03T13:34:46.961Z,1011.30
2018-08-03T13:35:46.960Z,1011.24
2018-08-03T13:37:39.813Z,1011.21
2018-08-03T13:38:39.786Z,1011.23
2018-08-03T13:40:32.636Z,1011.15
2018-08-03T13:41:32.610Z,1011.20
2018-08-03T13:43:25.468Z,1011.14
2018-08-03T13:44:25.445Z,1011.10
2018-08-03T13:46:18.315Z,1011.08
2018-08-03T13:47:18.267Z,1011.06
2018-08-03T13:49:11.110Z,1011.15
2018-08-03T13:50:11.110Z,1010.95
2018-08-03T13:52:03.964Z,1010.89
2018-08-03T13:53:03.945Z,1010.91
2018-08-03T13:54:56.795Z,1010.96
2018-08-03T13:55:56.771Z,1010.88
2018-08-03T13:57:49.677Z,1010.78
2018-08-03T13:58:49.608Z,1010.69
2018-08-03T14:00:42.475Z,1010.57
2018-08-03T14:01:42.451Z,1010.68
2018-08-03T14:03:35.796Z,1010.75
2018-08-03T14:04:35.787Z,1010.77
2018-08-03T14:06:28.639Z,1010.64
2018-08-03T14:07:28.612Z,1010.61
2018-08-03T14:09:21.482Z,1010.70
2018-08-03T14:10:21.442Z,1010.70
2018-08-03T14:12:14.308Z,1010.61
2018-08-03T14:13:14.281Z,1010.74
2018-08-03T14:15:07.129Z,1010.75
2018-08-03T14:16:07.095Z,1010.75
2018-08-03T14:17:59.966Z,1010.81
2018-08-03T14:18:59.931Z,1010.77
2018-08-03T14:20:52.773Z,1010.64
2018-08-03T14:21:52.765Z,1010.62
2018-08-03T14:23:46.123Z,1010.67
2018-08-03T14:24:46.092Z,1010.62
2018-08-03T14:26:38.927Z,1010.59
2018-08-03T14:27:38.911Z,1010.55
2018-08-03T14:29:31.796Z,1010.48
2018-08-03T14:30:31.752Z,1010.50
2018-08-03T14:32:24.598Z,1010.49
2018-08-03T14:33:24.572Z,1010.50
2018-08-03T14:35:17.436Z,1010.49
2018-08-03T14:36:17.416Z,1010.49
2018-08-03T14:38:10.336Z,1010.36
2018-08-03T14:39:10.247Z,1010.39
2018-08-03T14:41:03.618Z,1010.38
2018-08-03T14:42:03.603Z,1010.42
2018-08-03T14:43:57.916Z,1010.47
2018-08-03T14:44:57.901Z,1010.51
2018-08-03T14:46:50.744Z,1010.45
2018-08-03T14:47:50.723Z,1010.42
2018-08-03T14:49:43.576Z,1010.34
2018-08-03T14:50:43.544Z,1010.40
2018-08-03T14:52:36.422Z,1010.43
2018-08-03T14:53:36.403Z,1010.32
2018-08-03T14:55:29.321Z,1010.33
2018-08-03T14:56:29.234Z,1010.32
2018-08-03T14:58:22.069Z,1010.17
2018-08-03T14:59:22.052Z,1010.18
2018-08-03T15:01:14.911Z,1010.22
2018-08-03T15:02:14.893Z,1010.22
2018-08-03T15:04:07.729Z,1010.15
2018-08-03T15:05:07.729Z,1010.15
2018-08-03T15:07:00.569Z,1010.21
2018-08-03T15:08:00.555Z,1010.23
2018-08-03T15:09:53.389Z,1010.17
2018-08-03T15:10:53.368Z,1010.16
2018-08-03T15:12:46.228Z,1010.11
2018-08-03T15:13:46.182Z,1010.11
2018-08-03T15:15:39.051Z,1010.08
2018-08-03T15:16:39.028Z,1010.14
2018-08-03T15:18:31.874Z,1010.11
2018-08-03T15:19:31.842Z,1010.08
2018-08-03T15:21:24.752Z,1010.10
2018-08-03T15:22:24.669Z,1010.06
2018-08-03T15:24:17.534Z,1009.99
2018-08-03T15:25:17.483Z,1009.91
2018-08-03T15:27:10.364Z,1009.98
2018-08-03T15:28:10.333Z,1009.99
2018-08-03T15:30:03.162Z,1009.99
2018-08-03T15:31:03.158Z,1009.97
2018-08-03T15:32:56.003Z,1009.97
2018-08-03T15:33:55.984Z,1010.03
2018-08-03T15:35:49.324Z,1009.92
2018-08-03T15:36:49.328Z,1009.79
2018-08-03T15:38:42.164Z,1009.80
2018-08-03T15:39:42.124Z,1009.87
2018-08-03T15:41:34.982Z,1009.90
2018-08-03T15:42:34.954Z,1009.98
2018-08-03T15:44:27.821Z,1009.94
2018-08-03T15:45:27.777Z,1009.90
2018-08-03T15:47:20.661Z,1009.90
2018-08-03T15:48:20.604Z,1009.94
2018-08-03T15:50:13.466Z,1009.87
2018-08-03T15:51:13.459Z,1009.87
2018-08-03T15:53:06.296Z,1009.84
2018-08-03T15:54:06.264Z,1009.81
2018-08-03T15:55:59.141Z,1009.79
2018-08-03T15:56:59.089Z,1009.83
2018-08-03T15:58:51.941Z,1009.84
2018-08-03T15:59:51.911Z,1009.75
2018-08-03T16:01:44.779Z,1009.71
2018-08-03T16:02:44.750Z,1009.66
2018-08-03T16:04:37.620Z,1009.78
2018-08-03T16:05:37.566Z,1009.81
2018-08-03T16:07:30.907Z,1009.80
2018-08-03T16:08:30.886Z,1009.80
2018-08-03T16:10:23.746Z,1009.73
2018-08-03T16:11:23.716Z,1009.75
2018-08-03T16:13:17.055Z,1009.77
2018-08-03T16:14:17.027Z,1009.75
2018-08-03T16:16:09.991Z,1009.73
2018-08-03T16:17:09.862Z,1009.75
2018-08-03T16:19:02.708Z,1009.62
2018-08-03T16:20:02.691Z,1009.65
2018-08-03T16:21:55.546Z,1009.68
2018-08-03T16:22:55.509Z,1009.69
2018-08-03T16:24:48.367Z,1009.71
2018-08-03T16:25:48.343Z,1009.68
2018-08-03T16:27:41.176Z,1009.66
2018-08-03T16:28:41.157Z,1009.65
2018-08-03T16:30:34.070Z,1009.63
2018-08-03T16:31:33.981Z,1009.64
2018-08-03T16:33:26.829Z,1009.64
2018-08-03T16:34:26.797Z,1009.62
2018-08-03T16:36:20.153Z,1009.58
2018-08-03T16:37:20.120Z,1009.59
2018-08-03T16:39:12.957Z,1009.54
2018-08-03T16:40:12.936Z,1009.52
2018-08-03T16:42:05.797Z,1009.48
2018-08-03T16:43:05.756Z,1009.50
2018-08-03T16:44:58.626Z,1009.46
2018-08-03T16:45:58.591Z,1009.45
2018-08-03T16:47:51.422Z,1009.51
2018-08-03T16:48:51.396Z,1009.50
2018-08-03T16:50:44.252Z,1009.45
2018-08-03T16:51:44.216Z,1009.45
2018-08-03T16:53:37.547Z,1009.48
2018-08-03T16:54:37.543Z,1009.44
2018-08-03T16:56:30.383Z,1009.53
2018-08-03T16:57:30.358Z,1009.44
2018-08-03T16:59:23.203Z,1009.40
2018-08-03T17:00:23.193Z,1009.44
2018-08-03T17:02:16.055Z,1009.43
2018-08-03T17:03:16.000Z,1009.46
2018-08-03T17:05:08.858Z,1009.48
2018-08-03T17:06:08.828Z,1009.47
2018-08-03T17:08:01.701Z,1009.43
2018-08-03T17:09:01.638Z,1009.39
2018-08-03T17:10:54.473Z,1009.44
2018-08-03T17:11:54.454Z,1009.44
2018-08-03T17:13:47.314Z,1009.45
2018-08-03T17:14:47.283Z,1009.42
2018-08-03T17:16:40.127Z,1009.45
2018-08-03T17:17:40.082Z,1009.46
2018-08-03T17:19:33.431Z,1009.46
2018-08-03T17:20:33.429Z,1009.43
2018-08-03T17:22:26.257Z,1009.46
2018-08-03T17:23:26.225Z,1009.49
2018-08-03T17:25:19.052Z,1009.44